createdAt,value
2019-03-21T00:01:06.727Z,98739.59
2019-03-21T00:03:38.891Z,98734.00
2019-03-21T00:06:13.261Z,98733.48
2019-03-21T00:08:45.713Z,98727.70
2019-03-21T00:11:57.572Z,98723.51
2019-03-21T00:14:51.507Z,98728.52
2019-03-21T00:17:30.475Z,98727.20
2019-03-21T00:20:02.555Z,98732.52
2019-03-21T00:22:34.612Z,98735.81
2019-03-21T00:25:08.358Z,98725.01
2019-03-21T00:27:40.580Z,98723.42
2019-03-21T00:30:19.836Z,98719.38
2019-03-21T00:32:52.255Z,98725.06
2019-03-21T00:35:24.393Z,98721.27
2019-03-21T00:37:56.845Z,98714.69
2019-03-21T00:40:32.933Z,98719.75
2019-03-21T00:43:07.341Z,98724.69
2019-03-21T00:45:39.508Z,98723.95
2019-03-21T00:48:14.554Z,98732.12
2019-03-21T00:50:46.680Z,98719.99
2019-03-21T00:53:20.053Z,98717.45
2019-03-21T00:55:52.588Z,98717.63
2019-03-21T00:58:24.643Z,98722.97
2019-03-21T01:00:57.913Z,98715.51
2019-03-21T01:03:30.067Z,98722.47
2019-03-21T01:06:02.229Z,98722.48
2019-03-21T01:08:35.414Z,98713.09
2019-03-21T01:11:07.584Z,98718.88
2019-03-21T01:13:39.762Z,98716.53
2019-03-21T01:16:11.918Z,98713.97
2019-03-21T01:18:44.244Z,98721.37
2019-03-21T01:21:16.482Z,98711.67
2019-03-21T01:23:48.641Z,98715.67
2019-03-21T01:26:21.151Z,98714.78
2019-03-21T01:28:53.287Z,98719.91
2019-03-21T01:31:25.299Z,98718.64
2019-03-21T01:33:57.576Z,98710.95
2019-03-21T01:36:29.726Z,98712.37
2019-03-21T01:39:01.852Z,98715.67
2019-03-21T01:41:34.595Z,98708.34
2019-03-21T01:44:06.992Z,98715.27
2019-03-21T01:46:39.762Z,98708.66
2019-03-21T01:49:12.363Z,98705.99
2019-03-21T01:51:44.518Z,98704.93
2019-03-21T01:54:16.708Z,98700.20
2019-03-21T01:56:48.814Z,98700.95
2019-03-21T01:59:21.353Z,98703.27
2019-03-21T02:01:53.440Z,98701.52
2019-03-21T02:04:25.444Z,98699.26
2019-03-21T02:06:57.522Z,98695.25
2019-03-21T02:09:29.964Z,98696.25
2019-03-21T02:12:02.476Z,98698.51
2019-03-21T02:14:34.508Z,98698.34
2019-03-21T02:17:07.093Z,98697.56
2019-03-21T02:19:39.269Z,98691.41
2019-03-21T02:22:11.676Z,98689.18
2019-03-21T02:24:43.973Z,98690.82
2019-03-21T02:27:16.120Z,98692.16
2019-03-21T02:29:48.355Z,98699.41
2019-03-21T02:32:20.526Z,98691.41
2019-03-21T02:34:53.118Z,98689.73
2019-03-21T02:37:25.199Z,98695.62
2019-03-21T02:39:59.746Z,98692.27
2019-03-21T02:42:31.378Z,98702.97
2019-03-21T02:45:09.031Z,98703.13
2019-03-21T02:47:37.582Z,98704.70
2019-03-21T02:50:14.419Z,98706.92
2019-03-21T02:52:46.718Z,98700.03
2019-03-21T02:55:18.999Z,98705.03
2019-03-21T02:57:51.517Z,98692.65
2019-03-21T03:00:25.236Z,98699.72
2019-03-21T03:02:59.497Z,98692.49
2019-03-21T03:05:32.443Z,98693.77
2019-03-21T03:08:05.537Z,98700.08
2019-03-21T03:10:44.625Z,98692.22
2019-03-21T03:13:17.190Z,98687.59
2019-03-21T03:15:49.342Z,98680.97
2019-03-21T03:18:21.635Z,98686.73
2019-03-21T03:20:53.743Z,98684.93
2019-03-21T03:23:25.887Z,98684.28
2019-03-21T03:25:58.250Z,98691.77
2019-03-21T03:28:30.665Z,98688.80
2019-03-21T03:31:02.876Z,98679.06
2019-03-21T03:33:34.856Z,98685.58
2019-03-21T03:36:07.391Z,98692.47
2019-03-21T03:38:39.489Z,98685.57
2019-03-21T03:41:12.346Z,98685.59
2019-03-21T03:43:44.635Z,98692.20
2019-03-21T03:46:16.799Z,98689.42
2019-03-21T03:48:49.626Z,98677.66
2019-03-21T03:51:21.990Z,98684.90
2019-03-21T03:53:54.420Z,98691.74
2019-03-21T03:59:11.245Z,98676.31
2019-03-21T04:01:44.119Z,98684.56
2019-03-21T04:04:16.386Z,98681.67
2019-03-21T04:06:48.591Z,98689.32
2019-03-21T04:09:21.163Z,98682.37
2019-03-21T04:11:54.632Z,98688.80
2019-03-21T04:14:27.080Z,98683.22
2019-03-21T04:16:59.324Z,98679.30
2019-03-21T04:19:32.088Z,98671.06
2019-03-21T04:22:04.253Z,98667.63
2019-03-21T04:24:36.720Z,98660.86
2019-03-21T04:27:09.717Z,98649.19
2019-03-21T04:29:41.772Z,98646.84
2019-03-21T04:32:14.248Z,98637.36
2019-03-21T04:34:46.706Z,98643.77
2019-03-21T04:37:18.792Z,98635.78
2019-03-21T04:39:50.859Z,98637.07
2019-03-21T04:42:22.951Z,98641.34
2019-03-21T04:44:55.031Z,98651.91
2019-03-21T04:47:27.435Z,98641.92
2019-03-21T04:49:59.844Z,98633.70
2019-03-21T04:52:31.880Z,98643.81
2019-03-21T04:55:04.566Z,98650.48
2019-03-21T04:57:36.573Z,98647.66
2019-03-21T05:00:16.406Z,98643.97
2019-03-21T05:02:49.027Z,98637.89
2019-03-21T05:05:21.190Z,98634.45
2019-03-21T05:07:53.181Z,98634.00
2019-03-21T05:10:25.359Z,98636.37
2019-03-21T05:12:57.434Z,98641.86
2019-03-21T05:15:33.216Z,98632.45
2019-03-21T05:18:15.808Z,98639.05
2019-03-21T05:20:48.835Z,98644.91
2019-03-21T05:23:24.620Z,98642.24
2019-03-21T05:25:56.761Z,98641.14
2019-03-21T05:28:29.141Z,98643.55
2019-03-21T05:31:09.352Z,98649.33
2019-03-21T05:33:41.845Z,98652.92
2019-03-21T05:36:14.007Z,98656.00
2019-03-21T05:38:47.302Z,98655.97
2019-03-21T05:41:19.522Z,98657.40
2019-03-21T05:44:06.770Z,98657.08
2019-03-21T05:46:38.948Z,98668.17
2019-03-21T05:49:11.058Z,98676.91
2019-03-21T05:51:43.131Z,98670.05
2019-03-21T05:54:15.620Z,98679.38
2019-03-21T05:56:48.442Z,98684.38
2019-03-21T05:59:21.678Z,98690.17
2019-03-21T06:01:53.844Z,98697.71
2019-03-21T06:04:26.014Z,98691.85
2019-03-21T06:07:32.636Z,98684.52
2019-03-21T06:10:06.934Z,98678.41
2019-03-21T06:12:47.970Z,98678.91
2019-03-21T06:15:24.788Z,98669.92
2019-03-21T06:19:00.797Z,98667.47
2019-03-21T06:22:16.336Z,98671.35
2019-03-21T06:25:37.704Z,98677.91
2019-03-21T06:28:09.922Z,98672.91
2019-03-21T06:30:42.370Z,98661.80
2019-03-21T06:33:14.448Z,98669.92
2019-03-21T06:35:46.584Z,98672.98
2019-03-21T06:38:18.702Z,98671.95
2019-03-21T06:40:50.830Z,98664.63
2019-03-21T06:43:22.998Z,98669.16
2019-03-21T06:45:55.206Z,98668.54
2019-03-21T06:48:27.618Z,98676.28
2019-03-21T06:50:59.683Z,98672.02
2019-03-21T06:53:32.158Z,98675.24
2019-03-21T06:56:04.722Z,98677.61
2019-03-21T06:58:36.925Z,98687.68
2019-03-21T07:01:18.826Z,98689.19
2019-03-21T07:03:51.206Z,98689.71
2019-03-21T07:06:23.996Z,98679.38
2019-03-21T07:08:56.158Z,98682.34
2019-03-21T07:11:28.697Z,98681.57
2019-03-21T07:14:01.277Z,98678.22
2019-03-21T07:16:33.536Z,98678.33
2019-03-21T07:19:05.676Z,98680.95
2019-03-21T07:21:38.086Z,98684.07
2019-03-21T07:24:10.086Z,98684.92
2019-03-21T07:26:42.163Z,98680.67
2019-03-21T07:29:14.664Z,98674.25
2019-03-21T07:31:46.733Z,98673.55
2019-03-21T07:34:19.104Z,98666.46
2019-03-21T07:36:51.173Z,98666.97
2019-03-21T07:39:23.764Z,98674.05
2019-03-21T07:41:55.905Z,98670.11
2019-03-21T07:44:27.998Z,98669.01
2019-03-21T07:47:11.785Z,98672.66
2019-03-21T07:49:33.999Z,98669.01
2019-03-21T07:52:06.515Z,98668.53
2019-03-21T07:54:38.848Z,98666.65
2019-03-21T07:57:11.265Z,98665.47
2019-03-21T07:59:43.416Z,98665.62
2019-03-21T08:02:15.538Z,98660.61
2019-03-21T08:04:47.820Z,98660.95
2019-03-21T08:07:20.055Z,98671.62
2019-03-21T08:09:52.148Z,98666.78
2019-03-21T08:12:24.786Z,98661.30
2019-03-21T08:14:56.953Z,98658.84
2019-03-21T08:17:29.018Z,98659.16
2019-03-21T08:20:01.928Z,98667.94
2019-03-21T08:22:34.068Z,98664.80
2019-03-21T08:25:07.023Z,98663.02
2019-03-21T08:27:39.540Z,98658.41
2019-03-21T08:30:27.465Z,98669.48
2019-03-21T08:32:59.609Z,98659.41
2019-03-21T08:35:32.307Z,98663.19
2019-03-21T08:38:05.002Z,98660.45
2019-03-21T08:40:37.266Z,98663.55
2019-03-21T08:43:09.817Z,98663.22
2019-03-21T08:45:41.905Z,98662.92
2019-03-21T08:48:13.983Z,98654.49
2019-03-21T08:50:46.079Z,98655.12
2019-03-21T08:53:18.299Z,98659.96
2019-03-21T08:55:50.450Z,98654.63
2019-03-21T08:58:22.611Z,98662.59
2019-03-21T09:00:55.053Z,98660.31
2019-03-21T09:03:27.275Z,98654.45
2019-03-21T09:05:59.403Z,98650.34
2019-03-21T09:08:32.205Z,98647.18
2019-03-21T09:11:04.397Z,98647.70
2019-03-21T09:13:36.741Z,98648.34
2019-03-21T09:16:10.937Z,98643.23
2019-03-21T09:18:42.741Z,98643.55
2019-03-21T09:21:19.936Z,98638.84
2019-03-21T09:23:49.730Z,98636.77
2019-03-21T09:26:22.784Z,98633.99
2019-03-21T09:28:54.790Z,98638.26
2019-03-21T09:31:27.008Z,98643.45
2019-03-21T09:33:59.069Z,98633.27
2019-03-21T09:36:31.568Z,98637.37
2019-03-21T09:39:05.108Z,98647.44
2019-03-21T09:41:37.286Z,98633.52
2019-03-21T09:44:09.697Z,98642.56
2019-03-21T09:46:50.468Z,98643.15
2019-03-21T09:49:15.906Z,98658.05
2019-03-21T09:51:48.438Z,98645.41
2019-03-21T09:54:20.655Z,98638.38
2019-03-21T09:56:53.128Z,98637.37
2019-03-21T09:59:25.184Z,98632.13
2019-03-21T10:01:57.328Z,98631.39
2019-03-21T10:04:30.105Z,98634.56
2019-03-21T10:07:02.193Z,98638.08
2019-03-21T10:09:35.370Z,98634.25
2019-03-21T10:12:08.207Z,98634.94
2019-03-21T10:14:40.353Z,98634.55
2019-03-21T10:17:12.376Z,98624.11
2019-03-21T10:19:44.575Z,98626.66
2019-03-21T10:22:16.984Z,98633.50
2019-03-21T10:24:49.906Z,98631.48
2019-03-21T10:27:22.115Z,98635.05
2019-03-21T10:29:54.346Z,98630.99
2019-03-21T10:32:26.445Z,98626.56
2019-03-21T10:34:58.707Z,98626.43
2019-03-21T10:37:32.192Z,98622.19
2019-03-21T10:40:04.769Z,98614.47
2019-03-21T10:42:37.121Z,98616.50
2019-03-21T10:45:09.489Z,98605.75
2019-03-21T10:47:41.574Z,98605.27
2019-03-21T10:50:18.858Z,98604.24
2019-03-21T10:52:51.050Z,98598.69
2019-03-21T10:55:23.120Z,98596.91
2019-03-21T10:57:55.324Z,98594.52
2019-03-21T11:00:27.666Z,98589.81
2019-03-21T11:02:59.834Z,98588.07
2019-03-21T11:05:32.063Z,98588.08
2019-03-21T11:08:04.517Z,98578.48
2019-03-21T11:10:36.879Z,98582.41
2019-03-21T11:13:09.105Z,98578.48
2019-03-21T11:15:41.310Z,98573.63
2019-03-21T11:18:13.565Z,98575.23
2019-03-21T11:20:45.801Z,98571.86
2019-03-21T11:23:18.380Z,98573.98
2019-03-21T11:25:50.513Z,98574.02
2019-03-21T11:28:22.718Z,98563.92
2019-03-21T11:30:55.883Z,98563.69
2019-03-21T11:33:27.981Z,98551.95
2019-03-21T11:36:00.170Z,98540.16
2019-03-21T11:38:32.524Z,98545.39
2019-03-21T11:41:04.857Z,98539.30
2019-03-21T11:43:37.236Z,98534.52
2019-03-21T11:46:09.309Z,98527.55
2019-03-21T11:48:41.485Z,98524.38
2019-03-21T11:51:13.646Z,98521.00
2019-03-21T11:53:45.831Z,98517.90
2019-03-21T11:56:18.279Z,98519.57
2019-03-21T11:58:50.324Z,98521.86
2019-03-21T12:01:22.637Z,98511.77
2019-03-21T12:03:55.025Z,98508.84
2019-03-21T12:06:28.166Z,98505.30
2019-03-21T12:09:00.243Z,98506.44
2019-03-21T12:11:33.030Z,98500.75
2019-03-21T12:14:05.478Z,98502.34
2019-03-21T12:16:37.967Z,98498.40
2019-03-21T12:19:10.022Z,98500.81
2019-03-21T12:21:43.057Z,98497.75
2019-03-21T12:24:15.200Z,98494.03
2019-03-21T12:26:47.350Z,98489.04
2019-03-21T12:29:19.754Z,98480.91
2019-03-21T12:31:52.389Z,98482.59
2019-03-21T12:34:24.609Z,98476.48
2019-03-21T12:36:56.715Z,98474.52
2019-03-21T12:39:29.256Z,98475.22
2019-03-21T12:42:01.836Z,98473.23
2019-03-21T12:44:34.017Z,98466.77
2019-03-21T12:47:06.348Z,98468.30
2019-03-21T12:49:38.521Z,98467.00
2019-03-21T12:52:11.632Z,98468.28
2019-03-21T12:54:43.785Z,98459.84
2019-03-21T12:57:15.944Z,98451.35
2019-03-21T12:59:48.026Z,98450.12
2019-03-21T13:02:31.847Z,98441.07
2019-03-21T13:04:54.404Z,98439.00
2019-03-21T13:07:26.487Z,98442.36
2019-03-21T13:09:58.546Z,98438.27
2019-03-21T13:12:30.695Z,98431.47
2019-03-21T13:15:02.832Z,98429.84
2019-03-21T13:17:35.618Z,98423.63
2019-03-21T13:20:08.422Z,98418.47
2019-03-21T13:22:52.373Z,98415.73
2019-03-21T13:25:14.893Z,98415.59
2019-03-21T13:27:47.147Z,98415.30
2019-03-21T13:30:19.706Z,98406.48
2019-03-21T13:32:52.217Z,98410.02
2019-03-21T13:35:32.561Z,98400.25
2019-03-21T13:37:58.901Z,98396.85
2019-03-21T13:40:30.966Z,98397.49
2019-03-21T13:43:03.404Z,98392.80
2019-03-21T13:45:35.939Z,98398.27
2019-03-21T13:48:08.185Z,98392.08
2019-03-21T13:50:40.348Z,98385.09
2019-03-21T13:53:18.638Z,98382.05
2019-03-21T13:55:46.315Z,98384.31
2019-03-21T13:58:18.587Z,98381.55
2019-03-21T14:00:50.760Z,98375.50
2019-03-21T14:03:25.381Z,98369.77
2019-03-21T14:05:56.689Z,98371.03
2019-03-21T14:08:29.001Z,98379.58
2019-03-21T14:11:01.223Z,98368.48
2019-03-21T14:13:33.370Z,98361.78
2019-03-21T14:16:05.508Z,98367.34
2019-03-21T14:18:37.809Z,98365.77
2019-03-21T14:21:10.376Z,98360.38
2019-03-21T14:23:43.771Z,98357.72
2019-03-21T14:26:16.099Z,98356.30
2019-03-21T14:28:48.212Z,98357.78
2019-03-21T14:31:20.730Z,98352.72
2019-03-21T14:33:52.830Z,98347.61
2019-03-21T14:36:25.355Z,98346.24
2019-03-21T14:38:58.077Z,98348.92
2019-03-21T14:41:30.217Z,98341.78
2019-03-21T14:44:02.985Z,98347.91
2019-03-21T14:46:35.129Z,98345.35
2019-03-21T14:49:07.521Z,98345.13
2019-03-21T14:51:39.653Z,98347.61
2019-03-21T14:54:11.743Z,98341.65
2019-03-21T14:56:43.815Z,98342.00
2019-03-21T14:59:15.891Z,98336.92
2019-03-21T15:01:48.233Z,98335.98
2019-03-21T15:04:20.459Z,98342.16
2019-03-21T15:06:52.535Z,98338.72
2019-03-21T15:09:24.615Z,98336.10
2019-03-21T15:11:56.768Z,98339.56
2019-03-21T15:14:31.719Z,98339.05
2019-03-21T15:17:02.861Z,98336.41
2019-03-21T15:19:36.280Z,98331.65
2019-03-21T15:22:08.485Z,98326.38
2019-03-21T15:24:40.549Z,98327.09
2019-03-21T15:27:12.779Z,98316.98
2019-03-21T15:29:44.911Z,98319.23
2019-03-21T15:32:17.141Z,98311.29
2019-03-21T15:34:50.265Z,98320.89
2019-03-21T15:37:23.185Z,98321.79
2019-03-21T15:39:55.564Z,98321.91
2019-03-21T15:42:27.709Z,98321.25
2019-03-21T15:45:15.466Z,98317.73
2019-03-21T15:47:34.801Z,98309.41
2019-03-21T15:50:09.442Z,98326.45
2019-03-21T15:52:41.629Z,98319.88
2019-03-21T15:55:13.781Z,98320.41
2019-03-21T15:57:46.076Z,98319.13
2019-03-21T16:00:30.686Z,98314.34
2019-03-21T16:03:02.934Z,98321.28
2019-03-21T16:05:35.326Z,98321.26
2019-03-21T16:08:09.310Z,98314.38
2019-03-21T16:10:42.869Z,98320.92
2019-03-21T16:13:14.997Z,98318.76
2019-03-21T16:15:47.067Z,98320.05
2019-03-21T16:18:20.201Z,98315.27
2019-03-21T16:20:52.684Z,98327.34
2019-03-21T16:23:24.878Z,98321.61
2019-03-21T16:25:56.955Z,98321.98
2019-03-21T16:28:29.181Z,98321.94
2019-03-21T16:31:01.612Z,98322.17
2019-03-21T16:33:33.683Z,98315.22
2019-03-21T16:36:05.903Z,98314.74
2019-03-21T16:38:37.990Z,98319.23
2019-03-21T16:41:10.225Z,98317.48
2019-03-21T16:43:42.223Z,98325.17
2019-03-21T16:46:14.795Z,98332.21
2019-03-21T16:48:46.967Z,98322.75
2019-03-21T16:51:19.641Z,98328.70
2019-03-21T16:53:51.647Z,98329.62
2019-03-21T16:56:24.118Z,98328.56
2019-03-21T16:58:58.700Z,98332.05
2019-03-21T17:01:30.215Z,98334.16
2019-03-21T17:04:02.351Z,98336.39
2019-03-21T17:06:34.788Z,98339.15
2019-03-21T17:09:09.893Z,98341.58
2019-03-21T17:11:41.997Z,98337.96
2019-03-21T17:14:14.117Z,98334.30
2019-03-21T17:16:46.206Z,98336.33
2019-03-21T17:19:18.265Z,98344.33
2019-03-21T17:21:52.150Z,98349.74
2019-03-21T17:24:29.644Z,98340.67
2019-03-21T17:26:59.012Z,98350.78
2019-03-21T17:29:31.156Z,98355.84
2019-03-21T17:32:06.431Z,98357.52
2019-03-21T17:34:38.103Z,98359.63
2019-03-21T17:37:11.201Z,98360.00
2019-03-21T17:39:43.471Z,98361.28
2019-03-21T17:42:15.604Z,98369.29
2019-03-21T17:44:47.926Z,98368.86
2019-03-21T17:47:19.924Z,98363.22
2019-03-21T17:49:52.033Z,98374.06
2019-03-21T17:52:24.194Z,98373.06
2019-03-21T17:54:56.486Z,98372.50
2019-03-21T17:57:34.424Z,98370.11
2019-03-21T18:00:02.510Z,98380.23
2019-03-21T18:02:34.879Z,98377.70
2019-03-21T18:05:08.051Z,98377.63
2019-03-21T18:07:40.262Z,98376.06
2019-03-21T18:10:26.151Z,98380.80
2019-03-21T18:12:58.905Z,98373.27
2019-03-21T18:15:31.506Z,98384.70
2019-03-21T18:18:04.220Z,98383.78
2019-03-21T18:20:36.423Z,98388.08
2019-03-21T18:23:08.982Z,98386.09
2019-03-21T18:25:41.374Z,98393.23
2019-03-21T18:28:14.525Z,98400.06
2019-03-21T18:30:47.051Z,98399.61
2019-03-21T18:33:19.508Z,98402.36
2019-03-21T18:35:51.691Z,98403.16
2019-03-21T18:38:23.899Z,98405.02
2019-03-21T18:40:56.016Z,98407.37
2019-03-21T18:43:28.253Z,98407.73
2019-03-21T18:46:00.991Z,98409.46
2019-03-21T18:48:33.132Z,98410.65
2019-03-21T18:51:05.554Z,98409.59
2019-03-21T18:53:37.691Z,98405.87
2019-03-21T18:56:09.836Z,98405.56
2019-03-21T18:58:41.958Z,98407.11
2019-03-21T19:01:14.112Z,98411.48
2019-03-21T19:03:46.189Z,98408.95
2019-03-21T19:06:18.446Z,98409.42
2019-03-21T19:08:50.553Z,98408.73
2019-03-21T19:11:22.617Z,98410.97
2019-03-21T19:13:54.679Z,98409.64
2019-03-21T19:16:26.784Z,98409.50
2019-03-21T19:18:58.859Z,98410.92
2019-03-21T19:21:31.439Z,98413.63
2019-03-21T19:24:03.725Z,98411.99
2019-03-21T19:26:36.557Z,98417.66
2019-03-21T19:29:08.711Z,98419.12
2019-03-21T19:31:40.826Z,98409.98
2019-03-21T19:34:13.095Z,98408.95
2019-03-21T19:36:45.085Z,98414.32
2019-03-21T19:39:17.233Z,98420.89
2019-03-21T19:41:49.375Z,98420.41
2019-03-21T19:44:21.471Z,98418.98
2019-03-21T19:46:54.039Z,98408.34
2019-03-21T19:49:26.101Z,98421.27
2019-03-21T19:51:58.244Z,98416.19
2019-03-21T19:54:32.286Z,98413.77
2019-03-21T19:57:04.650Z,98415.54
2019-03-21T19:59:36.900Z,98413.58
2019-03-21T20:02:09.506Z,98416.34
2019-03-21T20:04:41.668Z,98411.70
2019-03-21T20:07:14.087Z,98409.23
2019-03-21T20:09:46.229Z,98413.73
2019-03-21T20:12:18.362Z,98407.27
2019-03-21T20:14:50.955Z,98409.00
2019-03-21T20:17:23.286Z,98417.17
2019-03-21T20:19:55.694Z,98416.14
2019-03-21T20:22:27.914Z,98421.70
2019-03-21T20:25:00.044Z,98422.64
2019-03-21T20:27:32.255Z,98427.56
2019-03-21T20:30:05.139Z,98420.96
2019-03-21T20:32:38.852Z,98422.70
2019-03-21T20:35:11.673Z,98410.67
2019-03-21T20:37:44.219Z,98408.59
2019-03-21T20:40:17.854Z,98411.30
2019-03-21T20:42:50.038Z,98408.98
2019-03-21T20:45:23.921Z,98413.13
2019-03-21T20:47:56.151Z,98412.84
2019-03-21T20:50:28.298Z,98419.44
2019-03-21T20:53:00.831Z,98413.52
2019-03-21T20:55:33.019Z,98421.31
2019-03-21T20:58:05.220Z,98419.58
2019-03-21T21:00:37.368Z,98413.95
2019-03-21T21:03:09.648Z,98402.94
2019-03-21T21:05:41.828Z,98410.02
2019-03-21T21:08:13.972Z,98404.44
2019-03-21T21:10:46.269Z,98401.53
2019-03-21T21:13:18.420Z,98405.28
2019-03-21T21:15:50.523Z,98417.86
2019-03-21T21:18:23.235Z,98414.32
2019-03-21T21:20:55.794Z,98417.99
2019-03-21T21:23:27.975Z,98410.50
2019-03-21T21:26:05.548Z,98412.45
2019-03-21T21:28:34.858Z,98413.44
2019-03-21T21:31:07.249Z,98420.88
2019-03-21T21:33:39.339Z,98419.38
2019-03-21T21:36:21.628Z,98415.00
2019-03-21T21:38:46.806Z,98418.75
2019-03-21T21:41:18.947Z,98419.99
2019-03-21T21:43:51.010Z,98427.61
2019-03-21T21:46:23.064Z,98420.48
2019-03-21T21:48:55.249Z,98425.59
2019-03-21T21:51:27.625Z,98425.92
2019-03-21T21:53:59.676Z,98429.77
2019-03-21T21:56:31.862Z,98424.66
2019-03-21T21:59:04.304Z,98429.03
2019-03-21T22:01:36.452Z,98433.81
2019-03-21T22:04:08.644Z,98429.11
2019-03-21T22:06:40.783Z,98432.38
2019-03-21T22:09:13.097Z,98434.62
2019-03-21T22:11:45.237Z,98429.89
2019-03-21T22:14:17.536Z,98429.14
2019-03-21T22:16:49.594Z,98427.20
2019-03-21T22:19:21.730Z,98428.52
2019-03-21T22:21:53.948Z,98425.47
2019-03-21T22:24:26.184Z,98424.28
2019-03-21T22:26:59.312Z,98421.73
2019-03-21T22:29:31.779Z,98417.72
2019-03-21T22:32:04.053Z,98425.28
2019-03-21T22:34:36.233Z,98417.61
2019-03-21T22:37:08.244Z,98422.42
2019-03-21T22:39:40.321Z,98415.08
2019-03-21T22:42:12.758Z,98412.66
2019-03-21T22:44:45.009Z,98412.09
2019-03-21T22:47:17.123Z,98412.00
2019-03-21T22:49:49.194Z,98409.53
2019-03-21T22:52:21.849Z,98409.66
2019-03-21T22:54:53.834Z,98406.81
2019-03-21T22:57:26.032Z,98409.67
2019-03-21T22:59:59.399Z,98408.83
2019-03-21T23:02:31.649Z,98405.50
2019-03-21T23:05:04.368Z,98407.45
2019-03-21T23:07:37.008Z,98403.59
2019-03-21T23:10:09.461Z,98406.71
2019-03-21T23:12:41.806Z,98405.37
2019-03-21T23:15:14.350Z,98398.25
2019-03-21T23:17:46.844Z,98407.50
2019-03-21T23:20:19.459Z,98407.83
2019-03-21T23:22:51.880Z,98408.09
2019-03-21T23:25:24.076Z,98398.41
2019-03-21T23:27:56.662Z,98399.81
2019-03-21T23:30:28.735Z,98402.48
2019-03-21T23:33:00.866Z,98404.44
2019-03-21T23:35:33.234Z,98401.15
2019-03-21T23:38:05.488Z,98403.20
2019-03-21T23:40:37.612Z,98399.93
2019-03-21T23:43:09.836Z,98392.98
2019-03-21T23:45:42.099Z,98400.42
2019-03-21T23:48:14.278Z,98398.49
2019-03-21T23:50:46.294Z,98395.21
2019-03-21T23:53:18.730Z,98392.54
2019-03-21T23:55:50.936Z,98389.77
2019-03-21T23:58:23.020Z,98387.63
